Terminal Aerodrome Forecast
Issued by NWS

Home | Current Version | Previous Version | Text Only | Print | Product List | Glossary On
Versions: 1 2 3 4 5 6 7 8 9 10 11 12 13 14 15 16 17 18 19 20 21 22
000
FTUS43 KDVN 221720
TAFBRL
TAF
KBRL 221720Z 2218/2318 22012G19KT P6SM VCSH SCT120 BKN150
      TEMPO 2218/2221 5SM -SHRA BKN050 OVC080
     FM230200 24010KT P6SM OVC050
     FM231100 29005KT 5SM BR VCSH OVC025=

USA.gov is the U.S. government's official web portal to all federal, state and local government web resources and services.